sensor_id;sensor_type;location;lat;lon;timestamp;P1;durP1;ratioP1;P2;durP2;ratioP2
15486;SDS011;7845;53.698;10.078;2022-12-17T00:00:22;45.30;;;24.77;;
15486;SDS011;7845;53.698;10.078;2022-12-17T00:03:07;36.10;;;23.00;;
15486;SDS011;7845;53.698;10.078;2022-12-17T00:05:53;34.90;;;22.20;;
15486;SDS011;7845;53.698;10.078;2022-12-17T00:08:37;35.60;;;21.40;;
15486;SDS011;7845;53.698;10.078;2022-12-17T00:11:21;48.43;;;25.97;;
15486;SDS011;7845;53.698;10.078;2022-12-17T00:14:05;34.37;;;20.87;;
15486;SDS011;7845;53.698;10.078;2022-12-17T00:16:49;39.17;;;24.07;;
15486;SDS011;7845;53.698;10.078;2022-12-17T00:19:33;34.67;;;22.10;;
15486;SDS011;7845;53.698;10.078;2022-12-17T00:22:17;38.80;;;22.70;;
15486;SDS011;7845;53.698;10.078;2022-12-17T00:25:01;44.07;;;24.27;;
15486;SDS011;7845;53.698;10.078;2022-12-17T00:27:45;35.73;;;20.80;;
15486;SDS011;7845;53.698;10.078;2022-12-17T00:30:30;38.63;;;23.50;;
15486;SDS011;7845;53.698;10.078;2022-12-17T00:33:14;38.30;;;24.50;;
15486;SDS011;7845;53.698;10.078;2022-12-17T00:35:57;38.13;;;24.17;;
15486;SDS011;7845;53.698;10.078;2022-12-17T00:38:41;42.37;;;24.10;;
15486;SDS011;7845;53.698;10.078;2022-12-17T00:41:25;40.60;;;26.43;;
15486;SDS011;7845;53.698;10.078;2022-12-17T00:44:09;36.57;;;23.60;;
15486;SDS011;7845;53.698;10.078;2022-12-17T00:46:54;39.37;;;22.43;;
15486;SDS011;7845;53.698;10.078;2022-12-17T00:49:38;37.63;;;24.57;;
15486;SDS011;7845;53.698;10.078;2022-12-17T00:52:23;45.50;;;25.10;;
15486;SDS011;7845;53.698;10.078;2022-12-17T00:55:06;42.90;;;26.83;;
15486;SDS011;7845;53.698;10.078;2022-12-17T00:57:54;48.40;;;27.10;;
15486;SDS011;7845;53.698;10.078;2022-12-17T01:00:39;49.77;;;27.03;;
15486;SDS011;7845;53.698;10.078;2022-12-17T01:03:25;47.20;;;27.40;;
15486;SDS011;7845;53.698;10.078;2022-12-17T01:06:11;43.40;;;25.00;;
15486;SDS011;7845;53.698;10.078;2022-12-17T01:08:55;47.03;;;25.27;;
15486;SDS011;7845;53.698;10.078;2022-12-17T01:11:40;39.80;;;24.67;;
15486;SDS011;7845;53.698;10.078;2022-12-17T01:14:25;51.40;;;26.40;;
15486;SDS011;7845;53.698;10.078;2022-12-17T01:17:09;40.40;;;25.83;;
15486;SDS011;7845;53.698;10.078;2022-12-17T01:19:53;47.43;;;31.03;;
15486;SDS011;7845;53.698;10.078;2022-12-17T01:22:37;59.37;;;33.43;;
15486;SDS011;7845;53.698;10.078;2022-12-17T01:25:21;54.47;;;31.07;;
15486;SDS011;7845;53.698;10.078;2022-12-17T01:28:06;55.13;;;32.43;;
15486;SDS011;7845;53.698;10.078;2022-12-17T01:30:50;56.63;;;35.20;;
15486;SDS011;7845;53.698;10.078;2022-12-17T01:33:33;51.97;;;28.60;;
15486;SDS011;7845;53.698;10.078;2022-12-17T01:36:17;44.67;;;26.50;;
15486;SDS011;7845;53.698;10.078;2022-12-17T01:39:02;51.87;;;33.00;;
15486;SDS011;7845;53.698;10.078;2022-12-17T01:41:46;51.33;;;29.50;;
15486;SDS011;7845;53.698;10.078;2022-12-17T01:44:43;48.63;;;28.17;;
15486;SDS011;7845;53.698;10.078;2022-12-17T01:47:39;39.70;;;25.40;;
15486;SDS011;7845;53.698;10.078;2022-12-17T01:50:48;47.07;;;28.83;;
15486;SDS011;7845;53.698;10.078;2022-12-17T01:53:36;56.33;;;28.87;;
15486;SDS011;7845;53.698;10.078;2022-12-17T01:56:24;46.20;;;25.37;;
15486;SDS011;7845;53.698;10.078;2022-12-17T01:59:08;42.73;;;25.57;;
15486;SDS011;7845;53.698;10.078;2022-12-17T02:01:55;44.17;;;26.67;;
15486;SDS011;7845;53.698;10.078;2022-12-17T02:04:40;45.80;;;28.53;;
15486;SDS011;7845;53.698;10.078;2022-12-17T02:07:46;41.30;;;23.93;;
15486;SDS011;7845;53.698;10.078;2022-12-17T02:11:04;36.77;;;22.00;;
15486;SDS011;7845;53.698;10.078;2022-12-17T02:14:17;42.63;;;27.10;;
15486;SDS011;7845;53.698;10.078;2022-12-17T02:17:08;41.40;;;25.60;;
15486;SDS011;7845;53.698;10.078;2022-12-17T02:23:20;54.73;;;29.97;;
15486;SDS011;7845;53.698;10.078;2022-12-17T02:26:16;48.13;;;29.35;;
15486;SDS011;7845;53.698;10.078;2022-12-17T02:29:12;52.80;;;27.73;;
15486;SDS011;7845;53.698;10.078;2022-12-17T02:31:57;48.10;;;28.23;;
15486;SDS011;7845;53.698;10.078;2022-12-17T02:34:45;45.53;;;28.73;;
15486;SDS011;7845;53.698;10.078;2022-12-17T02:37:30;50.17;;;29.87;;
15486;SDS011;7845;53.698;10.078;2022-12-17T02:40:15;46.00;;;29.55;;
15486;SDS011;7845;53.698;10.078;2022-12-17T02:43:02;44.28;;;24.88;;
15486;SDS011;7845;53.698;10.078;2022-12-17T02:45:48;39.90;;;23.60;;
15486;SDS011;7845;53.698;10.078;2022-12-17T02:48:32;40.23;;;24.97;;
15486;SDS011;7845;53.698;10.078;2022-12-17T02:51:17;43.43;;;25.90;;
15486;SDS011;7845;53.698;10.078;2022-12-17T02:54:02;41.80;;;24.42;;
15486;SDS011;7845;53.698;10.078;2022-12-17T02:56:46;41.90;;;23.30;;
15486;SDS011;7845;53.698;10.078;2022-12-17T02:59:32;37.50;;;23.90;;
15486;SDS011;7845;53.698;10.078;2022-12-17T03:02:16;52.13;;;27.52;;
15486;SDS011;7845;53.698;10.078;2022-12-17T03:04:59;38.90;;;23.60;;
15486;SDS011;7845;53.698;10.078;2022-12-17T03:07:43;45.00;;;25.90;;
15486;SDS011;7845;53.698;10.078;2022-12-17T03:10:27;36.33;;;21.67;;
15486;SDS011;7845;53.698;10.078;2022-12-17T03:13:24;47.35;;;25.98;;
15486;SDS011;7845;53.698;10.078;2022-12-17T03:16:10;49.42;;;26.02;;
15486;SDS011;7845;53.698;10.078;2022-12-17T03:19:15;37.92;;;22.30;;
15486;SDS011;7845;53.698;10.078;2022-12-17T03:21:59;39.95;;;23.92;;
15486;SDS011;7845;53.698;10.078;2022-12-17T03:24:43;39.80;;;23.35;;
15486;SDS011;7845;53.698;10.078;2022-12-17T03:27:27;40.83;;;23.05;;
15486;SDS011;7845;53.698;10.078;2022-12-17T03:30:11;35.30;;;21.13;;
15486;SDS011;7845;53.698;10.078;2022-12-17T03:32:55;35.00;;;22.90;;
15486;SDS011;7845;53.698;10.078;2022-12-17T03:35:39;37.22;;;22.58;;
15486;SDS011;7845;53.698;10.078;2022-12-17T03:38:23;37.75;;;22.23;;
15486;SDS011;7845;53.698;10.078;2022-12-17T03:41:07;33.30;;;22.23;;
15486;SDS011;7845;53.698;10.078;2022-12-17T03:43:51;39.15;;;22.63;;
15486;SDS011;7845;53.698;10.078;2022-12-17T03:46:35;40.23;;;21.20;;
15486;SDS011;7845;53.698;10.078;2022-12-17T03:49:21;36.70;;;21.63;;
15486;SDS011;7845;53.698;10.078;2022-12-17T03:52:05;35.92;;;22.00;;
15486;SDS011;7845;53.698;10.078;2022-12-17T03:54:49;36.67;;;22.27;;
15486;SDS011;7845;53.698;10.078;2022-12-17T03:57:33;34.13;;;22.23;;
15486;SDS011;7845;53.698;10.078;2022-12-17T04:00:17;40.88;;;24.50;;
15486;SDS011;7845;53.698;10.078;2022-12-17T04:03:02;40.88;;;24.02;;
15486;SDS011;7845;53.698;10.078;2022-12-17T04:05:48;50.58;;;24.70;;
15486;SDS011;7845;53.698;10.078;2022-12-17T04:08:31;35.80;;;21.87;;
15486;SDS011;7845;53.698;10.078;2022-12-17T04:11:15;37.88;;;21.90;;
15486;SDS011;7845;53.698;10.078;2022-12-17T04:13:59;36.42;;;22.50;;
15486;SDS011;7845;53.698;10.078;2022-12-17T04:16:44;37.80;;;21.97;;
15486;SDS011;7845;53.698;10.078;2022-12-17T04:19:28;33.67;;;20.40;;
15486;SDS011;7845;53.698;10.078;2022-12-17T04:22:12;33.17;;;19.17;;
15486;SDS011;7845;53.698;10.078;2022-12-17T04:24:56;35.25;;;21.15;;
15486;SDS011;7845;53.698;10.078;2022-12-17T04:27:40;34.40;;;21.97;;
15486;SDS011;7845;53.698;10.078;2022-12-17T04:30:24;34.35;;;20.95;;
15486;SDS011;7845;53.698;10.078;2022-12-17T04:33:07;46.25;;;24.35;;
15486;SDS011;7845;53.698;10.078;2022-12-17T04:35:51;38.80;;;22.30;;
15486;SDS011;7845;53.698;10.078;2022-12-17T04:38:36;38.53;;;22.83;;
15486;SDS011;7845;53.698;10.078;2022-12-17T04:41:20;33.55;;;20.55;;
15486;SDS011;7845;53.698;10.078;2022-12-17T04:44:04;33.57;;;20.00;;
15486;SDS011;7845;53.698;10.078;2022-12-17T04:46:49;32.17;;;19.92;;
15486;SDS011;7845;53.698;10.078;2022-12-17T04:49:33;33.05;;;21.20;;
15486;SDS011;7845;53.698;10.078;2022-12-17T04:52:17;37.33;;;20.42;;
15486;SDS011;7845;53.698;10.078;2022-12-17T04:55:01;37.65;;;21.70;;
15486;SDS011;7845;53.698;10.078;2022-12-17T04:57:45;33.97;;;19.60;;
15486;SDS011;7845;53.698;10.078;2022-12-17T05:00:29;29.90;;;20.25;;
15486;SDS011;7845;53.698;10.078;2022-12-17T05:03:14;33.67;;;20.15;;
15486;SDS011;7845;53.698;10.078;2022-12-17T05:05:58;33.07;;;20.40;;
15486;SDS011;7845;53.698;10.078;2022-12-17T05:08:44;39.30;;;22.50;;
15486;SDS011;7845;53.698;10.078;2022-12-17T05:11:29;33.13;;;19.90;;
15486;SDS011;7845;53.698;10.078;2022-12-17T05:14:15;30.03;;;19.63;;
15486;SDS011;7845;53.698;10.078;2022-12-17T05:16:59;31.20;;;18.77;;
15486;SDS011;7845;53.698;10.078;2022-12-17T05:19:43;34.92;;;20.05;;
15486;SDS011;7845;53.698;10.078;2022-12-17T05:22:27;37.00;;;20.60;;
15486;SDS011;7845;53.698;10.078;2022-12-17T05:25:11;32.13;;;18.60;;
15486;SDS011;7845;53.698;10.078;2022-12-17T05:27:55;35.00;;;20.20;;
15486;SDS011;7845;53.698;10.078;2022-12-17T05:30:39;32.90;;;19.58;;
15486;SDS011;7845;53.698;10.078;2022-12-17T05:33:24;31.15;;;19.02;;
15486;SDS011;7845;53.698;10.078;2022-12-17T05:36:08;32.00;;;18.88;;
15486;SDS011;7845;53.698;10.078;2022-12-17T05:38:52;32.75;;;19.73;;
15486;SDS011;7845;53.698;10.078;2022-12-17T05:41:36;32.03;;;20.58;;
15486;SDS011;7845;53.698;10.078;2022-12-17T05:44:20;31.48;;;19.08;;
15486;SDS011;7845;53.698;10.078;2022-12-17T05:47:04;37.10;;;19.35;;
15486;SDS011;7845;53.698;10.078;2022-12-17T05:49:48;32.90;;;21.30;;
15486;SDS011;7845;53.698;10.078;2022-12-17T05:52:32;36.90;;;21.20;;
15486;SDS011;7845;53.698;10.078;2022-12-17T05:55:16;34.72;;;20.20;;
15486;SDS011;7845;53.698;10.078;2022-12-17T05:58:02;37.75;;;23.63;;
15486;SDS011;7845;53.698;10.078;2022-12-17T06:00:47;35.70;;;19.30;;
15486;SDS011;7845;53.698;10.078;2022-12-17T06:03:31;27.80;;;17.63;;
15486;SDS011;7845;53.698;10.078;2022-12-17T06:06:15;30.20;;;19.87;;
15486;SDS011;7845;53.698;10.078;2022-12-17T06:08:59;32.73;;;18.67;;
15486;SDS011;7845;53.698;10.078;2022-12-17T06:11:44;33.15;;;19.30;;
15486;SDS011;7845;53.698;10.078;2022-12-17T06:14:27;38.15;;;22.88;;
15486;SDS011;7845;53.698;10.078;2022-12-17T06:17:11;37.60;;;18.25;;
15486;SDS011;7845;53.698;10.078;2022-12-17T06:19:55;34.28;;;18.77;;
15486;SDS011;7845;53.698;10.078;2022-12-17T06:22:39;32.67;;;19.00;;
15486;SDS011;7845;53.698;10.078;2022-12-17T06:25:23;29.92;;;18.50;;
15486;SDS011;7845;53.698;10.078;2022-12-17T06:28:07;30.92;;;16.50;;
15486;SDS011;7845;53.698;10.078;2022-12-17T06:30:52;35.50;;;20.00;;
15486;SDS011;7845;53.698;10.078;2022-12-17T06:33:37;31.57;;;17.83;;
15486;SDS011;7845;53.698;10.078;2022-12-17T06:36:21;29.20;;;17.10;;
15486;SDS011;7845;53.698;10.078;2022-12-17T06:39:06;30.33;;;19.10;;
15486;SDS011;7845;53.698;10.078;2022-12-17T06:41:50;36.85;;;18.35;;
15486;SDS011;7845;53.698;10.078;2022-12-17T06:44:33;28.70;;;16.70;;
15486;SDS011;7845;53.698;10.078;2022-12-17T06:47:18;25.95;;;16.23;;
15486;SDS011;7845;53.698;10.078;2022-12-17T06:50:03;33.85;;;19.52;;
15486;SDS011;7845;53.698;10.078;2022-12-17T06:52:56;31.67;;;17.52;;
15486;SDS011;7845;53.698;10.078;2022-12-17T06:55:41;32.97;;;18.75;;
15486;SDS011;7845;53.698;10.078;2022-12-17T06:58:25;26.58;;;16.75;;
15486;SDS011;7845;53.698;10.078;2022-12-17T07:01:08;25.90;;;16.58;;
15486;SDS011;7845;53.698;10.078;2022-12-17T07:03:53;31.10;;;18.70;;
15486;SDS011;7845;53.698;10.078;2022-12-17T07:06:37;30.17;;;19.70;;
15486;SDS011;7845;53.698;10.078;2022-12-17T07:09:22;28.70;;;17.80;;
15486;SDS011;7845;53.698;10.078;2022-12-17T07:12:05;27.77;;;17.45;;
15486;SDS011;7845;53.698;10.078;2022-12-17T07:14:49;29.83;;;17.27;;
15486;SDS011;7845;53.698;10.078;2022-12-17T07:17:34;27.67;;;16.92;;
15486;SDS011;7845;53.698;10.078;2022-12-17T07:20:17;26.98;;;15.70;;
15486;SDS011;7845;53.698;10.078;2022-12-17T07:23:01;27.25;;;16.02;;
15486;SDS011;7845;53.698;10.078;2022-12-17T07:25:45;28.52;;;17.42;;
15486;SDS011;7845;53.698;10.078;2022-12-17T07:28:29;25.33;;;17.50;;
15486;SDS011;7845;53.698;10.078;2022-12-17T07:31:13;28.02;;;17.60;;
15486;SDS011;7845;53.698;10.078;2022-12-17T07:33:56;30.25;;;17.15;;
15486;SDS011;7845;53.698;10.078;2022-12-17T07:36:40;28.63;;;16.15;;
15486;SDS011;7845;53.698;10.078;2022-12-17T07:39:24;26.42;;;16.52;;
15486;SDS011;7845;53.698;10.078;2022-12-17T07:42:08;26.35;;;16.38;;
15486;SDS011;7845;53.698;10.078;2022-12-17T07:44:52;29.77;;;18.20;;
15486;SDS011;7845;53.698;10.078;2022-12-17T07:47:36;32.47;;;17.92;;
15486;SDS011;7845;53.698;10.078;2022-12-17T07:50:19;26.08;;;16.70;;
15486;SDS011;7845;53.698;10.078;2022-12-17T07:53:07;29.10;;;16.57;;
15486;SDS011;7845;53.698;10.078;2022-12-17T07:55:51;27.80;;;16.97;;
15486;SDS011;7845;53.698;10.078;2022-12-17T07:58:34;31.13;;;16.70;;
15486;SDS011;7845;53.698;10.078;2022-12-17T08:01:19;26.75;;;16.25;;
15486;SDS011;7845;53.698;10.078;2022-12-17T08:04:02;26.00;;;16.67;;
15486;SDS011;7845;53.698;10.078;2022-12-17T08:06:49;30.48;;;18.77;;
15486;SDS011;7845;53.698;10.078;2022-12-17T08:09:33;26.77;;;16.57;;
15486;SDS011;7845;53.698;10.078;2022-12-17T08:12:17;27.47;;;15.93;;
15486;SDS011;7845;53.698;10.078;2022-12-17T08:15:00;26.53;;;15.97;;
15486;SDS011;7845;53.698;10.078;2022-12-17T08:17:47;27.73;;;19.00;;
15486;SDS011;7845;53.698;10.078;2022-12-17T08:20:31;27.87;;;16.87;;
15486;SDS011;7845;53.698;10.078;2022-12-17T08:23:25;23.00;;;15.03;;
15486;SDS011;7845;53.698;10.078;2022-12-17T08:26:09;26.83;;;16.07;;
15486;SDS011;7845;53.698;10.078;2022-12-17T08:28:53;28.95;;;16.77;;
15486;SDS011;7845;53.698;10.078;2022-12-17T08:31:38;25.23;;;15.00;;
15486;SDS011;7845;53.698;10.078;2022-12-17T08:34:21;23.17;;;14.93;;
15486;SDS011;7845;53.698;10.078;2022-12-17T08:37:05;24.20;;;13.38;;
15486;SDS011;7845;53.698;10.078;2022-12-17T08:39:50;24.08;;;14.98;;
15486;SDS011;7845;53.698;10.078;2022-12-17T08:42:34;30.08;;;16.30;;
15486;SDS011;7845;53.698;10.078;2022-12-17T08:45:18;27.98;;;16.52;;
15486;SDS011;7845;53.698;10.078;2022-12-17T08:48:03;32.03;;;15.53;;
15486;SDS011;7845;53.698;10.078;2022-12-17T08:50:50;26.30;;;15.77;;
15486;SDS011;7845;53.698;10.078;2022-12-17T08:53:34;32.47;;;18.07;;
15486;SDS011;7845;53.698;10.078;2022-12-17T08:56:18;25.60;;;16.80;;
15486;SDS011;7845;53.698;10.078;2022-12-17T08:59:02;25.00;;;15.93;;
15486;SDS011;7845;53.698;10.078;2022-12-17T09:01:45;29.17;;;18.33;;
15486;SDS011;7845;53.698;10.078;2022-12-17T09:04:43;29.80;;;17.33;;
15486;SDS011;7845;53.698;10.078;2022-12-17T09:07:26;29.90;;;17.13;;
15486;SDS011;7845;53.698;10.078;2022-12-17T09:10:10;31.92;;;19.52;;
15486;SDS011;7845;53.698;10.078;2022-12-17T09:12:54;31.63;;;18.77;;
15486;SDS011;7845;53.698;10.078;2022-12-17T09:15:38;27.63;;;15.43;;
15486;SDS011;7845;53.698;10.078;2022-12-17T09:18:22;27.80;;;16.87;;
15486;SDS011;7845;53.698;10.078;2022-12-17T09:21:06;24.80;;;15.53;;
15486;SDS011;7845;53.698;10.078;2022-12-17T09:23:51;30.60;;;17.10;;
15486;SDS011;7845;53.698;10.078;2022-12-17T09:26:36;28.13;;;15.83;;
15486;SDS011;7845;53.698;10.078;2022-12-17T09:29:20;31.77;;;19.70;;
15486;SDS011;7845;53.698;10.078;2022-12-17T09:32:04;27.10;;;17.17;;
15486;SDS011;7845;53.698;10.078;2022-12-17T09:34:47;28.63;;;18.27;;
15486;SDS011;7845;53.698;10.078;2022-12-17T09:37:31;29.50;;;17.17;;
15486;SDS011;7845;53.698;10.078;2022-12-17T09:40:19;28.40;;;18.33;;
15486;SDS011;7845;53.698;10.078;2022-12-17T09:43:10;31.43;;;18.70;;
15486;SDS011;7845;53.698;10.078;2022-12-17T09:46:19;31.70;;;17.97;;
15486;SDS011;7845;53.698;10.078;2022-12-17T09:49:16;28.63;;;18.30;;
15486;SDS011;7845;53.698;10.078;2022-12-17T09:52:38;28.87;;;18.83;;
15486;SDS011;7845;53.698;10.078;2022-12-17T09:58:27;30.63;;;17.23;;
15486;SDS011;7845;53.698;10.078;2022-12-17T10:01:31;30.00;;;17.53;;
15486;SDS011;7845;53.698;10.078;2022-12-17T10:04:22;32.50;;;18.13;;
15486;SDS011;7845;53.698;10.078;2022-12-17T10:07:20;27.83;;;18.07;;
15486;SDS011;7845;53.698;10.078;2022-12-17T10:10:18;31.80;;;21.10;;
15486;SDS011;7845;53.698;10.078;2022-12-17T10:13:13;27.30;;;16.67;;
15486;SDS011;7845;53.698;10.078;2022-12-17T10:16:01;29.83;;;17.47;;
15486;SDS011;7845;53.698;10.078;2022-12-17T10:18:58;30.00;;;17.20;;
15486;SDS011;7845;53.698;10.078;2022-12-17T10:21:42;32.60;;;19.07;;
15486;SDS011;7845;53.698;10.078;2022-12-17T10:24:26;34.63;;;19.83;;
15486;SDS011;7845;53.698;10.078;2022-12-17T10:27:14;32.67;;;17.83;;
15486;SDS011;7845;53.698;10.078;2022-12-17T10:30:02;43.07;;;21.27;;
15486;SDS011;7845;53.698;10.078;2022-12-17T10:32:54;29.90;;;18.80;;
15486;SDS011;7845;53.698;10.078;2022-12-17T10:35:46;29.60;;;17.50;;
15486;SDS011;7845;53.698;10.078;2022-12-17T10:38:29;29.90;;;18.60;;
15486;SDS011;7845;53.698;10.078;2022-12-17T10:41:24;33.50;;;18.40;;
15486;SDS011;7845;53.698;10.078;2022-12-17T10:44:19;32.33;;;18.80;;
15486;SDS011;7845;53.698;10.078;2022-12-17T10:47:10;30.80;;;19.00;;
15486;SDS011;7845;53.698;10.078;2022-12-17T10:49:56;27.23;;;17.17;;
15486;SDS011;7845;53.698;10.078;2022-12-17T10:52:46;29.93;;;19.90;;
15486;SDS011;7845;53.698;10.078;2022-12-17T10:55:32;27.00;;;16.90;;
15486;SDS011;7845;53.698;10.078;2022-12-17T10:58:20;31.47;;;16.80;;
15486;SDS011;7845;53.698;10.078;2022-12-17T11:01:10;25.60;;;15.80;;
15486;SDS011;7845;53.698;10.078;2022-12-17T11:04:01;22.40;;;14.13;;
15486;SDS011;7845;53.698;10.078;2022-12-17T11:06:49;25.03;;;14.47;;
15486;SDS011;7845;53.698;10.078;2022-12-17T11:09:46;26.10;;;15.13;;
15486;SDS011;7845;53.698;10.078;2022-12-17T11:12:36;20.60;;;13.07;;
15486;SDS011;7845;53.698;10.078;2022-12-17T11:19:12;24.20;;;13.63;;
15486;SDS011;7845;53.698;10.078;2022-12-17T11:21:40;21.30;;;12.83;;
15486;SDS011;7845;53.698;10.078;2022-12-17T11:24:26;21.70;;;13.60;;
15486;SDS011;7845;53.698;10.078;2022-12-17T11:27:19;20.40;;;12.60;;
15486;SDS011;7845;53.698;10.078;2022-12-17T11:30:11;18.30;;;12.27;;
15486;SDS011;7845;53.698;10.078;2022-12-17T11:32:58;22.37;;;13.87;;
15486;SDS011;7845;53.698;10.078;2022-12-17T11:42:04;21.03;;;12.27;;
15486;SDS011;7845;53.698;10.078;2022-12-17T11:45:02;18.33;;;12.07;;
15486;SDS011;7845;53.698;10.078;2022-12-17T11:48:22;18.43;;;10.93;;
15486;SDS011;7845;53.698;10.078;2022-12-17T11:51:11;21.33;;;11.27;;
15486;SDS011;7845;53.698;10.078;2022-12-17T11:54:23;20.83;;;11.53;;
15486;SDS011;7845;53.698;10.078;2022-12-17T12:00:30;18.43;;;10.27;;
15486;SDS011;7845;53.698;10.078;2022-12-17T12:06:57;18.07;;;11.03;;
15486;SDS011;7845;53.698;10.078;2022-12-17T12:09:56;17.30;;;10.70;;
15486;SDS011;7845;53.698;10.078;2022-12-17T12:19:15;14.77;;;9.83;;
15486;SDS011;7845;53.698;10.078;2022-12-17T12:28:34;14.60;;;8.97;;
15486;SDS011;7845;53.698;10.078;2022-12-17T12:34:32;14.33;;;9.10;;
15486;SDS011;7845;53.698;10.078;2022-12-17T12:37:20;15.47;;;8.60;;
15486;SDS011;7845;53.698;10.078;2022-12-17T12:40:15;13.63;;;8.63;;
15486;SDS011;7845;53.698;10.078;2022-12-17T12:43:10;15.50;;;8.27;;
15486;SDS011;7845;53.698;10.078;2022-12-17T12:49:04;15.00;;;7.93;;
15486;SDS011;7845;53.698;10.078;2022-12-17T12:51:55;11.37;;;6.87;;
15486;SDS011;7845;53.698;10.078;2022-12-17T12:57:30;13.13;;;8.00;;
15486;SDS011;7845;53.698;10.078;2022-12-17T13:00:22;14.03;;;7.27;;
15486;SDS011;7845;53.698;10.078;2022-12-17T13:06:14;13.77;;;7.17;;
15486;SDS011;7845;53.698;10.078;2022-12-17T13:09:20;12.13;;;7.70;;
15486;SDS011;7845;53.698;10.078;2022-12-17T13:14:29;14.10;;;8.30;;
15486;SDS011;7845;53.698;10.078;2022-12-17T13:17:59;10.03;;;6.30;;
15486;SDS011;7845;53.698;10.078;2022-12-17T13:22:52;15.27;;;7.17;;
15486;SDS011;7845;53.698;10.078;2022-12-17T13:25:28;15.03;;;7.20;;
15486;SDS011;7845;53.698;10.078;2022-12-17T13:27:54;11.27;;;6.73;;
15486;SDS011;7845;53.698;10.078;2022-12-17T13:30:21;9.33;;;6.10;;
15486;SDS011;7845;53.698;10.078;2022-12-17T13:43:33;13.20;;;7.43;;
15486;SDS011;7845;53.698;10.078;2022-12-17T13:46:03;12.20;;;7.33;;
15486;SDS011;7845;53.698;10.078;2022-12-17T13:48:29;11.30;;;5.73;;
15486;SDS011;7845;53.698;10.078;2022-12-17T13:50:57;11.30;;;6.40;;
15486;SDS011;7845;53.698;10.078;2022-12-17T13:53:29;10.60;;;6.53;;
15486;SDS011;7845;53.698;10.078;2022-12-17T13:55:58;10.70;;;6.17;;
15486;SDS011;7845;53.698;10.078;2022-12-17T13:58:26;14.10;;;7.00;;
15486;SDS011;7845;53.698;10.078;2022-12-17T14:03:30;14.90;;;7.67;;
15486;SDS011;7845;53.698;10.078;2022-12-17T14:05:55;11.17;;;6.90;;
15486;SDS011;7845;53.698;10.078;2022-12-17T14:08:21;11.37;;;6.97;;
15486;SDS011;7845;53.698;10.078;2022-12-17T14:10:52;10.67;;;6.53;;
15486;SDS011;7845;53.698;10.078;2022-12-17T14:13:43;11.90;;;6.80;;
15486;SDS011;7845;53.698;10.078;2022-12-17T14:16:14;12.33;;;7.17;;
15486;SDS011;7845;53.698;10.078;2022-12-17T14:18:42;12.13;;;6.50;;
15486;SDS011;7845;53.698;10.078;2022-12-17T14:21:13;11.83;;;6.30;;
15486;SDS011;7845;53.698;10.078;2022-12-17T14:23:38;12.53;;;7.07;;
15486;SDS011;7845;53.698;10.078;2022-12-17T14:26:07;11.60;;;6.87;;
15486;SDS011;7845;53.698;10.078;2022-12-17T14:28:35;16.17;;;6.50;;
15486;SDS011;7845;53.698;10.078;2022-12-17T14:33:37;12.30;;;6.53;;
15486;SDS011;7845;53.698;10.078;2022-12-17T14:36:07;12.40;;;7.80;;
15486;SDS011;7845;53.698;10.078;2022-12-17T14:38:58;12.87;;;7.33;;
15486;SDS011;7845;53.698;10.078;2022-12-17T14:41:25;13.30;;;8.27;;
15486;SDS011;7845;53.698;10.078;2022-12-17T14:44:24;12.23;;;8.03;;
15486;SDS011;7845;53.698;10.078;2022-12-17T14:49:49;14.90;;;7.27;;
15486;SDS011;7845;53.698;10.078;2022-12-17T14:52:34;12.30;;;7.40;;
15486;SDS011;7845;53.698;10.078;2022-12-17T14:55:30;12.47;;;8.50;;
15486;SDS011;7845;53.698;10.078;2022-12-17T14:58:20;16.10;;;8.30;;
15486;SDS011;7845;53.698;10.078;2022-12-17T15:03:40;16.70;;;7.70;;
15486;SDS011;7845;53.698;10.078;2022-12-17T15:06:11;15.50;;;8.57;;
15486;SDS011;7845;53.698;10.078;2022-12-17T15:08:44;11.83;;;7.93;;
15486;SDS011;7845;53.698;10.078;2022-12-17T15:11:12;16.03;;;8.50;;
15486;SDS011;7845;53.698;10.078;2022-12-17T15:13:39;14.53;;;8.50;;
15486;SDS011;7845;53.698;10.078;2022-12-17T15:16:06;14.87;;;8.87;;
15486;SDS011;7845;53.698;10.078;2022-12-17T15:18:32;14.87;;;10.03;;
15486;SDS011;7845;53.698;10.078;2022-12-17T15:20:58;17.47;;;9.27;;
15486;SDS011;7845;53.698;10.078;2022-12-17T15:23:23;15.07;;;9.30;;
15486;SDS011;7845;53.698;10.078;2022-12-17T15:25:49;17.83;;;10.30;;
15486;SDS011;7845;53.698;10.078;2022-12-17T15:28:17;16.90;;;9.97;;
15486;SDS011;7845;53.698;10.078;2022-12-17T15:30:45;17.93;;;9.53;;
15486;SDS011;7845;53.698;10.078;2022-12-17T15:33:12;14.97;;;9.37;;
15486;SDS011;7845;53.698;10.078;2022-12-17T15:35:37;15.80;;;8.83;;
15486;SDS011;7845;53.698;10.078;2022-12-17T15:38:04;13.40;;;8.73;;
15486;SDS011;7845;53.698;10.078;2022-12-17T15:40:30;13.27;;;8.83;;
15486;SDS011;7845;53.698;10.078;2022-12-17T15:42:55;14.50;;;9.50;;
15486;SDS011;7845;53.698;10.078;2022-12-17T15:45:39;12.97;;;8.20;;
15486;SDS011;7845;53.698;10.078;2022-12-17T15:48:07;14.27;;;8.60;;
15486;SDS011;7845;53.698;10.078;2022-12-17T15:50:34;12.03;;;8.83;;
15486;SDS011;7845;53.698;10.078;2022-12-17T15:52:59;17.40;;;9.47;;
15486;SDS011;7845;53.698;10.078;2022-12-17T15:55:25;11.60;;;7.47;;
15486;SDS011;7845;53.698;10.078;2022-12-17T15:57:50;15.83;;;9.00;;
15486;SDS011;7845;53.698;10.078;2022-12-17T16:00:15;18.37;;;10.00;;
15486;SDS011;7845;53.698;10.078;2022-12-17T16:02:42;17.50;;;9.33;;
15486;SDS011;7845;53.698;10.078;2022-12-17T16:05:08;13.70;;;8.50;;
15486;SDS011;7845;53.698;10.078;2022-12-17T16:07:33;17.40;;;8.57;;
15486;SDS011;7845;53.698;10.078;2022-12-17T16:09:59;14.77;;;7.80;;
15486;SDS011;7845;53.698;10.078;2022-12-17T16:12:25;14.10;;;8.50;;
15486;SDS011;7845;53.698;10.078;2022-12-17T16:14:50;16.50;;;10.50;;
15486;SDS011;7845;53.698;10.078;2022-12-17T16:17:15;15.83;;;9.60;;
15486;SDS011;7845;53.698;10.078;2022-12-17T16:19:42;20.70;;;11.67;;
15486;SDS011;7845;53.698;10.078;2022-12-17T16:22:07;14.30;;;8.93;;
15486;SDS011;7845;53.698;10.078;2022-12-17T16:24:33;18.20;;;10.07;;
15486;SDS011;7845;53.698;10.078;2022-12-17T16:26:58;15.33;;;9.83;;
15486;SDS011;7845;53.698;10.078;2022-12-17T16:29:23;15.23;;;10.03;;
15486;SDS011;7845;53.698;10.078;2022-12-17T16:31:49;18.43;;;11.07;;
15486;SDS011;7845;53.698;10.078;2022-12-17T16:34:14;20.00;;;9.70;;
15486;SDS011;7845;53.698;10.078;2022-12-17T16:36:40;20.63;;;10.33;;
15486;SDS011;7845;53.698;10.078;2022-12-17T16:39:06;19.60;;;11.43;;
15486;SDS011;7845;53.698;10.078;2022-12-17T16:41:31;19.50;;;11.90;;
15486;SDS011;7845;53.698;10.078;2022-12-17T16:43:57;17.90;;;10.87;;
15486;SDS011;7845;53.698;10.078;2022-12-17T16:48:56;17.17;;;11.40;;
15486;SDS011;7845;53.698;10.078;2022-12-17T16:51:24;21.37;;;11.07;;
15486;SDS011;7845;53.698;10.078;2022-12-17T16:53:50;23.87;;;10.20;;
15486;SDS011;7845;53.698;10.078;2022-12-17T16:56:17;21.93;;;12.70;;
15486;SDS011;7845;53.698;10.078;2022-12-17T16:58:45;18.37;;;10.63;;
15486;SDS011;7845;53.698;10.078;2022-12-17T17:01:11;19.97;;;11.57;;
15486;SDS011;7845;53.698;10.078;2022-12-17T17:03:40;22.10;;;11.57;;
15486;SDS011;7845;53.698;10.078;2022-12-17T17:06:05;17.30;;;10.73;;
15486;SDS011;7845;53.698;10.078;2022-12-17T17:08:32;17.63;;;11.00;;
15486;SDS011;7845;53.698;10.078;2022-12-17T17:11:12;19.70;;;10.70;;